sensor_id;sensor_type;location;lat;lon;timestamp;P1;durP1;ratioP1;P2;durP2;ratioP2
76348;SDS011;65172;46.764;15.406;2024-01-15T00:01:14;79.90;;;30.65;;
76348;SDS011;65172;46.764;15.406;2024-01-15T00:03:39;77.20;;;28.75;;
76348;SDS011;65172;46.764;15.406;2024-01-15T00:06:05;87.97;;;31.58;;
76348;SDS011;65172;46.764;15.406;2024-01-15T00:08:30;89.43;;;31.27;;
76348;SDS011;65172;46.764;15.406;2024-01-15T00:10:56;90.63;;;33.00;;
76348;SDS011;65172;46.764;15.406;2024-01-15T00:13:21;84.40;;;30.60;;
76348;SDS011;65172;46.764;15.406;2024-01-15T00:15:47;80.85;;;31.88;;
76348;SDS011;65172;46.764;15.406;2024-01-15T00:18:12;83.82;;;31.52;;
76348;SDS011;65172;46.764;15.406;2024-01-15T00:20:38;90.75;;;30.90;;
76348;SDS011;65172;46.764;15.406;2024-01-15T00:23:03;80.65;;;31.30;;
76348;SDS011;65172;46.764;15.406;2024-01-15T00:25:29;74.70;;;30.10;;
76348;SDS011;65172;46.764;15.406;2024-01-15T00:27:54;87.65;;;31.65;;
76348;SDS011;65172;46.764;15.406;2024-01-15T00:30:20;80.72;;;28.92;;
76348;SDS011;65172;46.764;15.406;2024-01-15T00:32:46;102.40;;;30.85;;
76348;SDS011;65172;46.764;15.406;2024-01-15T00:35:12;93.60;;;32.00;;
76348;SDS011;65172;46.764;15.406;2024-01-15T00:37:37;132.07;;;34.42;;
76348;SDS011;65172;46.764;15.406;2024-01-15T00:40:03;81.15;;;30.33;;
76348;SDS011;65172;46.764;15.406;2024-01-15T00:42:29;93.20;;;30.77;;
76348;SDS011;65172;46.764;15.406;2024-01-15T00:44:55;228.07;;;33.58;;
76348;SDS011;65172;46.764;15.406;2024-01-15T00:47:20;110.60;;;33.53;;
76348;SDS011;65172;46.764;15.406;2024-01-15T00:49:46;98.68;;;32.55;;
76348;SDS011;65172;46.764;15.406;2024-01-15T00:52:11;100.70;;;33.45;;
76348;SDS011;65172;46.764;15.406;2024-01-15T00:54:37;88.60;;;31.70;;
76348;SDS011;65172;46.764;15.406;2024-01-15T00:57:03;79.93;;;32.50;;
76348;SDS011;65172;46.764;15.406;2024-01-15T00:59:28;114.70;;;32.97;;
76348;SDS011;65172;46.764;15.406;2024-01-15T01:01:54;94.50;;;33.05;;
76348;SDS011;65172;46.764;15.406;2024-01-15T01:04:19;96.20;;;33.25;;
76348;SDS011;65172;46.764;15.406;2024-01-15T01:06:45;90.43;;;31.90;;
76348;SDS011;65172;46.764;15.406;2024-01-15T01:09:10;97.47;;;33.58;;
76348;SDS011;65172;46.764;15.406;2024-01-15T01:11:36;99.10;;;33.92;;
76348;SDS011;65172;46.764;15.406;2024-01-15T01:14:01;138.70;;;34.67;;
76348;SDS011;65172;46.764;15.406;2024-01-15T01:16:27;90.75;;;32.35;;
76348;SDS011;65172;46.764;15.406;2024-01-15T01:18:52;92.53;;;31.65;;
76348;SDS011;65172;46.764;15.406;2024-01-15T01:21:18;91.10;;;33.22;;
76348;SDS011;65172;46.764;15.406;2024-01-15T01:23:44;84.88;;;32.20;;
76348;SDS011;65172;46.764;15.406;2024-01-15T01:26:10;88.13;;;31.75;;
76348;SDS011;65172;46.764;15.406;2024-01-15T01:28:35;88.10;;;31.15;;
76348;SDS011;65172;46.764;15.406;2024-01-15T01:31:01;81.13;;;31.70;;
76348;SDS011;65172;46.764;15.406;2024-01-15T01:33:26;86.40;;;31.98;;
76348;SDS011;65172;46.764;15.406;2024-01-15T01:35:52;80.38;;;29.83;;
76348;SDS011;65172;46.764;15.406;2024-01-15T01:38:18;72.03;;;29.92;;
76348;SDS011;65172;46.764;15.406;2024-01-15T01:40:43;79.55;;;31.00;;
76348;SDS011;65172;46.764;15.406;2024-01-15T01:43:09;78.20;;;30.83;;
76348;SDS011;65172;46.764;15.406;2024-01-15T01:45:35;86.40;;;32.42;;
76348;SDS011;65172;46.764;15.406;2024-01-15T01:48:01;83.18;;;31.23;;
76348;SDS011;65172;46.764;15.406;2024-01-15T01:53:02;80.30;;;30.83;;
76348;SDS011;65172;46.764;15.406;2024-01-15T01:55:29;110.55;;;42.15;;
76348;SDS011;65172;46.764;15.406;2024-01-15T01:57:55;82.00;;;31.48;;
76348;SDS011;65172;46.764;15.406;2024-01-15T02:00:20;89.63;;;33.72;;
76348;SDS011;65172;46.764;15.406;2024-01-15T02:02:46;81.43;;;31.17;;
76348;SDS011;65172;46.764;15.406;2024-01-15T02:05:12;76.25;;;29.20;;
76348;SDS011;65172;46.764;15.406;2024-01-15T02:07:38;118.60;;;40.20;;
76348;SDS011;65172;46.764;15.406;2024-01-15T02:10:04;80.88;;;30.25;;
76348;SDS011;65172;46.764;15.406;2024-01-15T02:12:31;80.15;;;30.27;;
76348;SDS011;65172;46.764;15.406;2024-01-15T02:14:57;81.50;;;30.40;;
76348;SDS011;65172;46.764;15.406;2024-01-15T02:17:22;88.13;;;31.63;;
76348;SDS011;65172;46.764;15.406;2024-01-15T02:19:49;78.88;;;29.95;;
76348;SDS011;65172;46.764;15.406;2024-01-15T02:22:15;75.88;;;30.35;;
76348;SDS011;65172;46.764;15.406;2024-01-15T02:24:40;77.72;;;29.17;;
76348;SDS011;65172;46.764;15.406;2024-01-15T02:27:05;82.75;;;31.02;;
76348;SDS011;65172;46.764;15.406;2024-01-15T02:29:31;79.85;;;29.50;;
76348;SDS011;65172;46.764;15.406;2024-01-15T02:31:57;84.55;;;30.55;;
76348;SDS011;65172;46.764;15.406;2024-01-15T02:34:22;91.88;;;31.27;;
76348;SDS011;65172;46.764;15.406;2024-01-15T02:36:48;87.68;;;31.45;;
76348;SDS011;65172;46.764;15.406;2024-01-15T02:39:14;81.30;;;29.58;;
76348;SDS011;65172;46.764;15.406;2024-01-15T02:41:40;77.07;;;30.33;;
76348;SDS011;65172;46.764;15.406;2024-01-15T02:44:05;86.53;;;31.35;;
76348;SDS011;65172;46.764;15.406;2024-01-15T02:46:31;81.18;;;30.92;;
76348;SDS011;65172;46.764;15.406;2024-01-15T02:48:56;77.32;;;28.98;;
76348;SDS011;65172;46.764;15.406;2024-01-15T02:51:22;74.93;;;29.23;;
76348;SDS011;65172;46.764;15.406;2024-01-15T02:53:49;77.28;;;28.13;;
76348;SDS011;65172;46.764;15.406;2024-01-15T02:56:15;75.22;;;28.63;;
76348;SDS011;65172;46.764;15.406;2024-01-15T02:58:41;69.75;;;25.42;;
76348;SDS011;65172;46.764;15.406;2024-01-15T03:01:06;51.17;;;20.63;;
76348;SDS011;65172;46.764;15.406;2024-01-15T03:03:32;41.20;;;18.70;;
76348;SDS011;65172;46.764;15.406;2024-01-15T03:05:58;79.43;;;29.50;;
76348;SDS011;65172;46.764;15.406;2024-01-15T03:08:23;59.92;;;24.63;;
76348;SDS011;65172;46.764;15.406;2024-01-15T03:10:49;41.75;;;19.70;;
76348;SDS011;65172;46.764;15.406;2024-01-15T03:13:15;54.63;;;20.52;;
76348;SDS011;65172;46.764;15.406;2024-01-15T03:15:40;62.95;;;26.92;;
76348;SDS011;65172;46.764;15.406;2024-01-15T03:18:05;72.47;;;28.00;;
76348;SDS011;65172;46.764;15.406;2024-01-15T03:20:31;68.95;;;25.67;;
76348;SDS011;65172;46.764;15.406;2024-01-15T03:22:57;60.45;;;23.75;;
76348;SDS011;65172;46.764;15.406;2024-01-15T03:25:22;66.50;;;28.30;;
76348;SDS011;65172;46.764;15.406;2024-01-15T03:27:48;71.60;;;26.50;;
76348;SDS011;65172;46.764;15.406;2024-01-15T03:30:13;76.53;;;28.25;;
76348;SDS011;65172;46.764;15.406;2024-01-15T03:32:39;74.78;;;27.42;;
76348;SDS011;65172;46.764;15.406;2024-01-15T03:35:04;68.60;;;26.95;;
76348;SDS011;65172;46.764;15.406;2024-01-15T03:37:30;70.13;;;25.20;;
76348;SDS011;65172;46.764;15.406;2024-01-15T03:39:56;71.80;;;28.35;;
76348;SDS011;65172;46.764;15.406;2024-01-15T03:42:21;76.20;;;30.30;;
76348;SDS011;65172;46.764;15.406;2024-01-15T03:44:47;79.97;;;28.23;;
76348;SDS011;65172;46.764;15.406;2024-01-15T03:47:12;84.30;;;31.60;;
76348;SDS011;65172;46.764;15.406;2024-01-15T03:49:38;80.10;;;31.17;;
76348;SDS011;65172;46.764;15.406;2024-01-15T03:52:03;73.20;;;29.17;;
76348;SDS011;65172;46.764;15.406;2024-01-15T03:54:29;75.00;;;30.35;;
76348;SDS011;65172;46.764;15.406;2024-01-15T03:56:55;75.13;;;28.85;;
76348;SDS011;65172;46.764;15.406;2024-01-15T03:59:20;75.03;;;28.15;;
76348;SDS011;65172;46.764;15.406;2024-01-15T04:01:49;77.28;;;29.63;;
76348;SDS011;65172;46.764;15.406;2024-01-15T04:04:15;82.13;;;30.63;;
76348;SDS011;65172;46.764;15.406;2024-01-15T04:06:41;67.82;;;28.20;;
76348;SDS011;65172;46.764;15.406;2024-01-15T04:09:07;77.38;;;28.23;;
76348;SDS011;65172;46.764;15.406;2024-01-15T04:11:32;76.10;;;29.73;;
76348;SDS011;65172;46.764;15.406;2024-01-15T04:13:57;68.80;;;27.50;;
76348;SDS011;65172;46.764;15.406;2024-01-15T04:16:23;80.43;;;29.95;;
76348;SDS011;65172;46.764;15.406;2024-01-15T04:18:48;71.65;;;28.52;;
76348;SDS011;65172;46.764;15.406;2024-01-15T04:21:14;62.05;;;26.65;;
76348;SDS011;65172;46.764;15.406;2024-01-15T04:23:39;60.03;;;25.67;;
76348;SDS011;65172;46.764;15.406;2024-01-15T04:26:05;65.38;;;26.25;;
76348;SDS011;65172;46.764;15.406;2024-01-15T04:28:30;66.57;;;27.05;;
76348;SDS011;65172;46.764;15.406;2024-01-15T04:30:56;65.53;;;27.98;;
76348;SDS011;65172;46.764;15.406;2024-01-15T04:33:21;66.70;;;26.35;;
76348;SDS011;65172;46.764;15.406;2024-01-15T04:35:47;66.32;;;26.27;;
76348;SDS011;65172;46.764;15.406;2024-01-15T04:38:12;64.68;;;25.65;;
76348;SDS011;65172;46.764;15.406;2024-01-15T04:40:38;62.92;;;26.15;;
76348;SDS011;65172;46.764;15.406;2024-01-15T04:43:03;59.80;;;25.10;;
76348;SDS011;65172;46.764;15.406;2024-01-15T04:45:29;65.30;;;26.88;;
76348;SDS011;65172;46.764;15.406;2024-01-15T04:47:55;66.40;;;26.88;;
76348;SDS011;65172;46.764;15.406;2024-01-15T04:50:23;63.08;;;26.33;;
76348;SDS011;65172;46.764;15.406;2024-01-15T04:52:49;63.67;;;26.52;;
76348;SDS011;65172;46.764;15.406;2024-01-15T04:55:15;70.88;;;27.38;;
76348;SDS011;65172;46.764;15.406;2024-01-15T04:57:41;65.65;;;25.73;;
76348;SDS011;65172;46.764;15.406;2024-01-15T05:00:06;70.40;;;26.52;;
76348;SDS011;65172;46.764;15.406;2024-01-15T05:02:32;70.43;;;27.38;;
76348;SDS011;65172;46.764;15.406;2024-01-15T05:04:57;61.95;;;25.70;;
76348;SDS011;65172;46.764;15.406;2024-01-15T05:07:26;55.95;;;23.75;;
76348;SDS011;65172;46.764;15.406;2024-01-15T05:09:51;59.17;;;22.17;;
76348;SDS011;65172;46.764;15.406;2024-01-15T05:12:17;57.50;;;24.40;;
76348;SDS011;65172;46.764;15.406;2024-01-15T05:14:42;53.97;;;21.10;;
76348;SDS011;65172;46.764;15.406;2024-01-15T05:17:08;61.03;;;24.40;;
76348;SDS011;65172;46.764;15.406;2024-01-15T05:19:33;62.25;;;23.27;;
76348;SDS011;65172;46.764;15.406;2024-01-15T05:21:59;61.58;;;24.35;;
76348;SDS011;65172;46.764;15.406;2024-01-15T05:24:24;74.32;;;31.92;;
76348;SDS011;65172;46.764;15.406;2024-01-15T05:26:51;65.53;;;27.15;;
76348;SDS011;65172;46.764;15.406;2024-01-15T05:29:17;68.88;;;27.42;;
76348;SDS011;65172;46.764;15.406;2024-01-15T05:31:43;63.00;;;24.60;;
76348;SDS011;65172;46.764;15.406;2024-01-15T05:34:09;60.67;;;25.38;;
76348;SDS011;65172;46.764;15.406;2024-01-15T05:36:34;64.70;;;23.80;;
76348;SDS011;65172;46.764;15.406;2024-01-15T05:39:00;46.90;;;20.00;;
76348;SDS011;65172;46.764;15.406;2024-01-15T05:41:25;49.28;;;21.10;;
76348;SDS011;65172;46.764;15.406;2024-01-15T05:43:51;35.35;;;17.10;;
76348;SDS011;65172;46.764;15.406;2024-01-15T05:46:17;40.65;;;16.52;;
76348;SDS011;65172;46.764;15.406;2024-01-15T05:48:42;63.60;;;26.05;;
76348;SDS011;65172;46.764;15.406;2024-01-15T05:51:08;65.63;;;26.17;;
76348;SDS011;65172;46.764;15.406;2024-01-15T05:53:33;66.38;;;26.30;;
76348;SDS011;65172;46.764;15.406;2024-01-15T05:55:59;64.82;;;28.05;;
76348;SDS011;65172;46.764;15.406;2024-01-15T05:58:26;66.07;;;25.98;;
76348;SDS011;65172;46.764;15.406;2024-01-15T06:00:51;68.80;;;27.58;;
76348;SDS011;65172;46.764;15.406;2024-01-15T06:03:17;61.85;;;25.98;;
76348;SDS011;65172;46.764;15.406;2024-01-15T06:05:42;75.35;;;30.55;;
76348;SDS011;65172;46.764;15.406;2024-01-15T06:08:08;67.40;;;26.15;;
76348;SDS011;65172;46.764;15.406;2024-01-15T06:10:33;64.82;;;27.52;;
76348;SDS011;65172;46.764;15.406;2024-01-15T06:12:59;72.25;;;27.85;;
76348;SDS011;65172;46.764;15.406;2024-01-15T06:15:24;67.38;;;26.65;;
76348;SDS011;65172;46.764;15.406;2024-01-15T06:17:50;63.40;;;26.85;;
76348;SDS011;65172;46.764;15.406;2024-01-15T06:20:15;63.33;;;25.23;;
76348;SDS011;65172;46.764;15.406;2024-01-15T06:22:41;61.92;;;25.00;;
76348;SDS011;65172;46.764;15.406;2024-01-15T06:25:07;63.75;;;26.33;;
76348;SDS011;65172;46.764;15.406;2024-01-15T06:27:33;63.17;;;24.60;;
76348;SDS011;65172;46.764;15.406;2024-01-15T06:29:59;64.22;;;26.35;;
76348;SDS011;65172;46.764;15.406;2024-01-15T06:32:24;68.65;;;26.67;;
76348;SDS011;65172;46.764;15.406;2024-01-15T06:34:50;66.47;;;25.88;;
76348;SDS011;65172;46.764;15.406;2024-01-15T06:37:15;68.00;;;25.38;;
76348;SDS011;65172;46.764;15.406;2024-01-15T06:39:41;66.80;;;25.75;;
76348;SDS011;65172;46.764;15.406;2024-01-15T06:42:06;66.10;;;26.58;;
76348;SDS011;65172;46.764;15.406;2024-01-15T06:44:31;60.85;;;23.73;;
76348;SDS011;65172;46.764;15.406;2024-01-15T06:46:57;63.30;;;25.77;;
76348;SDS011;65172;46.764;15.406;2024-01-15T06:49:27;57.38;;;23.83;;
76348;SDS011;65172;46.764;15.406;2024-01-15T06:51:55;64.38;;;25.80;;
76348;SDS011;65172;46.764;15.406;2024-01-15T06:54:21;69.25;;;26.92;;
76348;SDS011;65172;46.764;15.406;2024-01-15T06:56:47;61.88;;;25.58;;
76348;SDS011;65172;46.764;15.406;2024-01-15T06:59:12;61.28;;;25.10;;
76348;SDS011;65172;46.764;15.406;2024-01-15T07:01:38;58.00;;;24.73;;
76348;SDS011;65172;46.764;15.406;2024-01-15T07:04:03;65.13;;;26.35;;
76348;SDS011;65172;46.764;15.406;2024-01-15T07:06:29;61.72;;;25.60;;
76348;SDS011;65172;46.764;15.406;2024-01-15T07:08:55;63.20;;;30.60;;
76348;SDS011;65172;46.764;15.406;2024-01-15T07:11:21;63.50;;;24.70;;
76348;SDS011;65172;46.764;15.406;2024-01-15T07:13:47;61.53;;;25.10;;
76348;SDS011;65172;46.764;15.406;2024-01-15T07:16:12;65.45;;;25.35;;
76348;SDS011;65172;46.764;15.406;2024-01-15T07:18:38;57.67;;;23.40;;
76348;SDS011;65172;46.764;15.406;2024-01-15T07:21:03;61.58;;;25.33;;
76348;SDS011;65172;46.764;15.406;2024-01-15T07:23:30;56.05;;;24.13;;
76348;SDS011;65172;46.764;15.406;2024-01-15T07:25:56;60.85;;;22.95;;
76348;SDS011;65172;46.764;15.406;2024-01-15T07:28:22;55.58;;;23.23;;
76348;SDS011;65172;46.764;15.406;2024-01-15T07:30:47;48.90;;;20.58;;
76348;SDS011;65172;46.764;15.406;2024-01-15T07:33:13;49.88;;;20.00;;
76348;SDS011;65172;46.764;15.406;2024-01-15T07:35:38;46.63;;;19.60;;
76348;SDS011;65172;46.764;15.406;2024-01-15T07:38:04;45.20;;;19.05;;
76348;SDS011;65172;46.764;15.406;2024-01-15T07:40:29;32.40;;;15.52;;
76348;SDS011;65172;46.764;15.406;2024-01-15T07:42:55;37.85;;;16.92;;
76348;SDS011;65172;46.764;15.406;2024-01-15T07:45:20;27.88;;;14.85;;
76348;SDS011;65172;46.764;15.406;2024-01-15T07:47:46;33.15;;;15.32;;
76348;SDS011;65172;46.764;15.406;2024-01-15T07:50:11;82.03;;;44.10;;
76348;SDS011;65172;46.764;15.406;2024-01-15T07:52:37;116.65;;;64.28;;
76348;SDS011;65172;46.764;15.406;2024-01-15T07:55:03;59.55;;;24.92;;
76348;SDS011;65172;46.764;15.406;2024-01-15T07:57:30;71.95;;;28.65;;
76348;SDS011;65172;46.764;15.406;2024-01-15T07:59:55;63.05;;;28.25;;
76348;SDS011;65172;46.764;15.406;2024-01-15T08:02:21;54.38;;;24.48;;
76348;SDS011;65172;46.764;15.406;2024-01-15T08:04:47;40.00;;;19.80;;
76348;SDS011;65172;46.764;15.406;2024-01-15T08:07:12;33.00;;;14.57;;
76348;SDS011;65172;46.764;15.406;2024-01-15T08:09:38;27.08;;;13.55;;
76348;SDS011;65172;46.764;15.406;2024-01-15T08:12:03;21.50;;;12.02;;
76348;SDS011;65172;46.764;15.406;2024-01-15T08:14:31;22.90;;;12.07;;
76348;SDS011;65172;46.764;15.406;2024-01-15T08:16:57;62.30;;;26.13;;
76348;SDS011;65172;46.764;15.406;2024-01-15T08:19:22;61.53;;;28.00;;
76348;SDS011;65172;46.764;15.406;2024-01-15T08:21:48;70.93;;;29.25;;
76348;SDS011;65172;46.764;15.406;2024-01-15T08:24:14;55.35;;;23.10;;
76348;SDS011;65172;46.764;15.406;2024-01-15T08:26:39;55.28;;;25.77;;
76348;SDS011;65172;46.764;15.406;2024-01-15T08:29:05;44.10;;;20.92;;
76348;SDS011;65172;46.764;15.406;2024-01-15T08:31:30;22.08;;;12.43;;
76348;SDS011;65172;46.764;15.406;2024-01-15T08:33:56;55.10;;;25.33;;
76348;SDS011;65172;46.764;15.406;2024-01-15T08:36:22;52.53;;;24.90;;
76348;SDS011;65172;46.764;15.406;2024-01-15T08:38:49;33.47;;;17.45;;
76348;SDS011;65172;46.764;15.406;2024-01-15T08:41:14;21.80;;;12.65;;
76348;SDS011;65172;46.764;15.406;2024-01-15T08:43:40;19.98;;;10.73;;
76348;SDS011;65172;46.764;15.406;2024-01-15T08:46:05;23.83;;;12.95;;
76348;SDS011;65172;46.764;15.406;2024-01-15T08:48:32;30.08;;;12.85;;
76348;SDS011;65172;46.764;15.406;2024-01-15T08:50:57;23.23;;;12.68;;
76348;SDS011;65172;46.764;15.406;2024-01-15T08:53:23;19.85;;;10.95;;
76348;SDS011;65172;46.764;15.406;2024-01-15T08:55:48;58.67;;;27.40;;
76348;SDS011;65172;46.764;15.406;2024-01-15T08:58:14;35.42;;;18.13;;
76348;SDS011;65172;46.764;15.406;2024-01-15T09:00:40;30.27;;;16.65;;
76348;SDS011;65172;46.764;15.406;2024-01-15T09:03:05;31.77;;;16.05;;
76348;SDS011;65172;46.764;15.406;2024-01-15T09:05:31;26.33;;;13.63;;
76348;SDS011;65172;46.764;15.406;2024-01-15T09:07:57;30.35;;;16.83;;
76348;SDS011;65172;46.764;15.406;2024-01-15T09:10:22;43.40;;;20.08;;
76348;SDS011;65172;46.764;15.406;2024-01-15T09:12:48;56.90;;;25.25;;
76348;SDS011;65172;46.764;15.406;2024-01-15T09:15:16;61.92;;;30.30;;
76348;SDS011;65172;46.764;15.406;2024-01-15T09:17:42;66.82;;;30.15;;
76348;SDS011;65172;46.764;15.406;2024-01-15T09:20:08;63.25;;;29.67;;
76348;SDS011;65172;46.764;15.406;2024-01-15T09:22:34;71.68;;;31.50;;
76348;SDS011;65172;46.764;15.406;2024-01-15T09:25:00;64.70;;;28.13;;
76348;SDS011;65172;46.764;15.406;2024-01-15T09:27:26;73.93;;;32.38;;
76348;SDS011;65172;46.764;15.406;2024-01-15T09:29:54;74.30;;;33.30;;
76348;SDS011;65172;46.764;15.406;2024-01-15T09:32:20;95.18;;;45.72;;
76348;SDS011;65172;46.764;15.406;2024-01-15T09:34:46;66.22;;;29.17;;
76348;SDS011;65172;46.764;15.406;2024-01-15T09:37:11;61.85;;;30.00;;
76348;SDS011;65172;46.764;15.406;2024-01-15T09:39:37;75.93;;;31.42;;
76348;SDS011;65172;46.764;15.406;2024-01-15T09:42:03;53.28;;;24.83;;
76348;SDS011;65172;46.764;15.406;2024-01-15T09:44:29;62.85;;;29.08;;
76348;SDS011;65172;46.764;15.406;2024-01-15T09:46:55;67.15;;;26.52;;
76348;SDS011;65172;46.764;15.406;2024-01-15T09:49:21;56.50;;;27.02;;
76348;SDS011;65172;46.764;15.406;2024-01-15T09:51:47;59.63;;;27.67;;
76348;SDS011;65172;46.764;15.406;2024-01-15T09:54:12;57.35;;;25.42;;
76348;SDS011;65172;46.764;15.406;2024-01-15T09:56:40;45.78;;;22.63;;
76348;SDS011;65172;46.764;15.406;2024-01-15T09:59:05;55.38;;;26.38;;
76348;SDS011;65172;46.764;15.406;2024-01-15T10:01:32;45.20;;;22.40;;
76348;SDS011;65172;46.764;15.406;2024-01-15T10:03:58;36.88;;;17.38;;
76348;SDS011;65172;46.764;15.406;2024-01-15T10:06:26;54.80;;;24.67;;
76348;SDS011;65172;46.764;15.406;2024-01-15T10:08:56;51.15;;;25.65;;
76348;SDS011;65172;46.764;15.406;2024-01-15T10:11:23;58.55;;;27.35;;
76348;SDS011;65172;46.764;15.406;2024-01-15T10:13:48;62.67;;;28.73;;
76348;SDS011;65172;46.764;15.406;2024-01-15T10:16:21;60.45;;;28.23;;
76348;SDS011;65172;46.764;15.406;2024-01-15T10:18:47;44.92;;;22.25;;
76348;SDS011;65172;46.764;15.406;2024-01-15T10:21:13;31.90;;;17.33;;
76348;SDS011;65172;46.764;15.406;2024-01-15T10:23:39;45.42;;;20.75;;
76348;SDS011;65172;46.764;15.406;2024-01-15T10:26:05;57.63;;;25.02;;
76348;SDS011;65172;46.764;15.406;2024-01-15T10:28:30;61.83;;;26.50;;
76348;SDS011;65172;46.764;15.406;2024-01-15T10:30:58;36.92;;;17.92;;
76348;SDS011;65172;46.764;15.406;2024-01-15T10:33:24;34.80;;;17.08;;
76348;SDS011;65172;46.764;15.406;2024-01-15T10:35:55;55.92;;;26.17;;
76348;SDS011;65172;46.764;15.406;2024-01-15T10:38:22;61.15;;;28.88;;
76348;SDS011;65172;46.764;15.406;2024-01-15T10:40:51;55.40;;;25.92;;
76348;SDS011;65172;46.764;15.406;2024-01-15T10:43:18;56.17;;;25.67;;
76348;SDS011;65172;46.764;15.406;2024-01-15T10:45:44;54.00;;;26.65;;
76348;SDS011;65172;46.764;15.406;2024-01-15T10:48:10;61.05;;;27.65;;
76348;SDS011;65172;46.764;15.406;2024-01-15T10:50:36;61.78;;;27.92;;
76348;SDS011;65172;46.764;15.406;2024-01-15T10:53:01;50.20;;;26.48;;
76348;SDS011;65172;46.764;15.406;2024-01-15T10:55:27;55.78;;;26.00;;
76348;SDS011;65172;46.764;15.406;2024-01-15T10:57:53;50.10;;;25.20;;
76348;SDS011;65172;46.764;15.406;2024-01-15T11:00:21;46.08;;;22.25;;
76348;SDS011;65172;46.764;15.406;2024-01-15T11:02:47;45.83;;;23.73;;
76348;SDS011;65172;46.764;15.406;2024-01-15T11:05:12;44.15;;;22.55;;
76348;SDS011;65172;46.764;15.406;2024-01-15T11:07:39;49.58;;;23.52;;
76348;SDS011;65172;46.764;15.406;2024-01-15T11:10:05;56.65;;;24.83;;
76348;SDS011;65172;46.764;15.406;2024-01-15T11:12:30;48.47;;;25.38;;
76348;SDS011;65172;46.764;15.406;2024-01-15T11:15:03;51.40;;;26.17;;
76348;SDS011;65172;46.764;15.406;2024-01-15T11:18:19;47.55;;;24.52;;
76348;SDS011;65172;46.764;15.406;2024-01-15T11:20:23;45.85;;;23.10;;
76348;SDS011;65172;46.764;15.406;2024-01-15T11:22:48;46.15;;;23.80;;
76348;SDS011;65172;46.764;15.406;2024-01-15T11:25:14;51.42;;;22.10;;
76348;SDS011;65172;46.764;15.406;2024-01-15T11:30:12;38.65;;;19.77;;
76348;SDS011;65172;46.764;15.406;2024-01-15T11:32:38;36.90;;;18.80;;
76348;SDS011;65172;46.764;15.406;2024-01-15T11:35:07;35.10;;;18.38;;
76348;SDS011;65172;46.764;15.406;2024-01-15T11:38:18;34.40;;;16.60;;
76348;SDS011;65172;46.764;15.406;2024-01-15T11:42:58;30.48;;;16.10;;
76348;SDS011;65172;46.764;15.406;2024-01-15T11:45:23;34.25;;;15.68;;
76348;SDS011;65172;46.764;15.406;2024-01-15T11:50:49;30.33;;;16.20;;
76348;SDS011;65172;46.764;15.406;2024-01-15T11:53:31;26.77;;;13.43;;
76348;SDS011;65172;46.764;15.406;2024-01-15T11:56:01;28.23;;;13.80;;
76348;SDS011;65172;46.764;15.406;2024-01-15T11:58:27;26.38;;;13.98;;
76348;SDS011;65172;46.764;15.406;2024-01-15T12:00:53;37.00;;;19.10;;
76348;SDS011;65172;46.764;15.406;2024-01-15T12:03:23;27.38;;;14.10;;
76348;SDS011;65172;46.764;15.406;2024-01-15T12:05:49;23.27;;;13.38;;
76348;SDS011;65172;46.764;15.406;2024-01-15T12:08:15;27.13;;;14.30;;
76348;SDS011;65172;46.764;15.406;2024-01-15T12:10:46;27.05;;;13.48;;
76348;SDS011;65172;46.764;15.406;2024-01-15T12:13:12;21.00;;;12.32;;
76348;SDS011;65172;46.764;15.406;2024-01-15T12:15:39;19.85;;;11.40;;
76348;SDS011;65172;46.764;15.406;2024-01-15T12:18:09;22.42;;;11.63;;
76348;SDS011;65172;46.764;15.406;2024-01-15T12:20:35;19.30;;;10.68;;
76348;SDS011;65172;46.764;15.406;2024-01-15T12:23:01;21.08;;;11.38;;
76348;SDS011;65172;46.764;15.406;2024-01-15T12:25:29;16.70;;;9.13;;
76348;SDS011;65172;46.764;15.406;2024-01-15T12:27:55;16.58;;;10.07;;
76348;SDS011;65172;46.764;15.406;2024-01-15T12:30:21;14.75;;;7.40;;
76348;SDS011;65172;46.764;15.406;2024-01-15T12:32:47;15.75;;;8.25;;
76348;SDS011;65172;46.764;15.406;2024-01-15T12:35:13;29.08;;;13.23;;
76348;SDS011;65172;46.764;15.406;2024-01-15T12:37:39;17.60;;;9.95;;
76348;SDS011;65172;46.764;15.406;2024-01-15T12:40:05;18.70;;;9.95;;
76348;SDS011;65172;46.764;15.406;2024-01-15T12:42:32;16.05;;;8.50;;
76348;SDS011;65172;46.764;15.406;2024-01-15T12:44:59;16.10;;;7.78;;
76348;SDS011;65172;46.764;15.406;2024-01-15T12:47:25;19.48;;;10.23;;
76348;SDS011;65172;46.764;15.406;2024-01-15T12:49:53;17.77;;;9.13;;
76348;SDS011;65172;46.764;15.406;2024-01-15T12:52:20;14.07;;;8.00;;
76348;SDS011;65172;46.764;15.406;2024-01-15T12:54:47;18.90;;;9.13;;
76348;SDS011;65172;46.764;15.406;2024-01-15T12:57:16;14.35;;;8.63;;
76348;SDS011;65172;46.764;15.406;2024-01-15T12:59:45;15.20;;;8.32;;
76348;SDS011;65172;46.764;15.406;2024-01-15T13:02:11;16.40;;;8.73;;
76348;SDS011;65172;46.764;15.406;2024-01-15T13:04:40;20.13;;;9.13;;
76348;SDS011;65172;46.764;15.406;2024-01-15T13:07:06;14.68;;;8.43;;
76348;SDS011;65172;46.764;15.406;2024-01-15T13:09:32;17.45;;;9.45;;
76348;SDS011;65172;46.764;15.406;2024-01-15T13:11:58;15.32;;;9.85;;
76348;SDS011;65172;46.764;15.406;2024-01-15T13:14:24;16.58;;;9.65;;
76348;SDS011;65172;46.764;15.406;2024-01-15T13:16:50;20.17;;;9.35;;
76348;SDS011;65172;46.764;15.406;2024-01-15T13:19:15;23.48;;;11.27;;
76348;SDS011;65172;46.764;15.406;2024-01-15T13:21:41;19.92;;;10.85;;
76348;SDS011;65172;46.764;15.406;2024-01-15T13:24:06;24.45;;;11.70;;
76348;SDS011;65172;46.764;15.406;2024-01-15T13:26:35;19.05;;;10.82;;
76348;SDS011;65172;46.764;15.406;2024-01-15T13:29:03;22.80;;;11.13;;
76348;SDS011;65172;46.764;15.406;2024-01-15T13:31:31;19.85;;;11.18;;
76348;SDS011;65172;46.764;15.406;2024-01-15T13:33:57;22.52;;;10.82;;
76348;SDS011;65172;46.764;15.406;2024-01-15T13:36:24;28.10;;;11.63;;
76348;SDS011;65172;46.764;15.406;2024-01-15T13:38:50;18.05;;;10.27;;
76348;SDS011;65172;46.764;15.406;2024-01-15T13:41:17;18.08;;;10.15;;
76348;SDS011;65172;46.764;15.406;2024-01-15T13:43:45;23.38;;;11.75;;
76348;SDS011;65172;46.764;15.406;2024-01-15T13:46:11;22.25;;;11.25;;
76348;SDS011;65172;46.764;15.406;2024-01-15T13:48:36;17.95;;;10.93;;
76348;SDS011;65172;46.764;15.406;2024-01-15T13:51:02;20.92;;;11.27;;
76348;SDS011;65172;46.764;15.406;2024-01-15T13:53:27;18.38;;;10.77;;
76348;SDS011;65172;46.764;15.406;2024-01-15T13:55:54;22.02;;;11.20;;
76348;SDS011;65172;46.764;15.406;2024-01-15T13:58:20;20.25;;;10.80;;
76348;SDS011;65172;46.764;15.406;2024-01-15T14:00:46;22.83;;;11.82;;
76348;SDS011;65172;46.764;15.406;2024-01-15T14:03:12;21.75;;;12.15;;
76348;SDS011;65172;46.764;15.406;2024-01-15T14:05:38;22.42;;;10.70;;
76348;SDS011;65172;46.764;15.406;2024-01-15T14:08:03;20.17;;;11.30;;
76348;SDS011;65172;46.764;15.406;2024-01-15T14:10:29;22.05;;;11.57;;
76348;SDS011;65172;46.764;15.406;2024-01-15T14:12:55;23.80;;;10.75;;